createdAt,value
2018-09-18T00:02:06.098Z,13.30
2018-09-18T00:05:09.199Z,13.20
2018-09-18T00:08:12.305Z,13.20
2018-09-18T00:11:15.391Z,13.20
2018-09-18T00:14:18.488Z,13.20
2018-09-18T00:17:21.647Z,13.10
2018-09-18T00:20:24.752Z,13.10
2018-09-18T00:23:28.167Z,13.00
2018-09-18T00:26:31.307Z,13.10
2018-09-18T00:29:34.431Z,13.10
2018-09-18T00:32:37.548Z,13.10
2018-09-18T00:35:40.723Z,13.00
2018-09-18T00:38:43.820Z,12.90
2018-09-18T00:41:48.013Z,12.90
2018-09-18T00:44:51.120Z,12.90
2018-09-18T00:47:54.255Z,12.90
2018-09-18T00:50:57.355Z,13.00
2018-09-18T00:54:00.448Z,12.90
2018-09-18T00:57:05.234Z,12.80
2018-09-18T01:00:08.448Z,12.70
2018-09-18T01:03:11.563Z,12.70
2018-09-18T01:06:14.660Z,12.60
2018-09-18T01:09:17.767Z,12.70
2018-09-18T01:12:20.872Z,12.70
2018-09-18T01:15:23.984Z,12.60
2018-09-18T01:18:42.943Z,12.70
2018-09-18T01:21:46.063Z,12.70
2018-09-18T01:24:49.274Z,12.80
2018-09-18T01:27:52.457Z,12.90
2018-09-18T01:30:55.588Z,12.80
2018-09-18T01:33:58.792Z,12.90
2018-09-18T01:37:01.926Z,13.00
2018-09-18T01:40:05.438Z,13.00
2018-09-18T01:43:08.558Z,13.10
2018-09-18T01:46:11.663Z,13.20
2018-09-18T01:49:14.775Z,13.20
2018-09-18T01:52:17.890Z,13.20
2018-09-18T01:55:21.079Z,13.20
2018-09-18T01:58:24.239Z,13.20
2018-09-18T02:01:27.344Z,13.20
2018-09-18T02:04:30.458Z,13.30
2018-09-18T02:07:33.576Z,13.30
2018-09-18T02:10:36.729Z,13.40
2018-09-18T02:13:40.939Z,13.50
2018-09-18T02:16:44.060Z,13.40
2018-09-18T02:19:47.180Z,13.50
2018-09-18T02:22:50.330Z,13.50
2018-09-18T02:25:53.435Z,13.50
2018-09-18T02:28:56.590Z,13.50
2018-09-18T02:31:59.799Z,13.50
2018-09-18T02:35:02.923Z,13.60
2018-09-18T02:38:06.048Z,13.60
2018-09-18T02:41:09.502Z,13.50
2018-09-18T02:44:12.608Z,13.60
2018-09-18T02:47:15.779Z,13.50
2018-09-18T02:50:18.906Z,13.50
2018-09-18T02:53:22.098Z,13.40
2018-09-18T02:56:25.247Z,13.40
2018-09-18T02:59:28.363Z,13.40
2018-09-18T03:02:31.480Z,13.40
2018-09-18T03:05:35.739Z,13.40
2018-09-18T03:08:39.035Z,13.40
2018-09-18T03:11:42.139Z,13.50
2018-09-18T03:14:45.296Z,13.50
2018-09-18T03:17:48.464Z,13.50
2018-09-18T03:20:51.633Z,13.40
2018-09-18T03:23:54.700Z,13.40
2018-09-18T03:26:57.953Z,13.40
2018-09-18T03:30:01.076Z,13.40
2018-09-18T03:33:04.268Z,13.40
2018-09-18T03:36:07.404Z,13.30
2018-09-18T03:39:10.591Z,13.30
2018-09-18T03:42:13.688Z,13.30
2018-09-18T03:45:16.768Z,13.30
2018-09-18T03:48:19.860Z,13.20
2018-09-18T03:51:22.958Z,13.20
2018-09-18T03:54:26.156Z,13.20
2018-09-18T03:57:29.257Z,13.10
2018-09-18T04:00:32.359Z,13.10
2018-09-18T04:03:35.481Z,13.10
2018-09-18T04:06:38.659Z,13.00
2018-09-18T04:09:41.770Z,13.00
2018-09-18T04:12:44.914Z,12.90
2018-09-18T04:15:48.035Z,13.00
2018-09-18T04:18:51.115Z,12.90
2018-09-18T04:21:54.214Z,12.90
2018-09-18T04:24:57.408Z,12.90
2018-09-18T04:28:00.584Z,13.00
2018-09-18T04:31:03.691Z,13.00
2018-09-18T04:34:06.779Z,13.00
2018-09-18T04:37:09.915Z,12.90
2018-09-18T04:40:13.093Z,12.90
2018-09-18T04:43:16.187Z,12.90
2018-09-18T04:46:19.392Z,12.90
2018-09-18T04:49:22.518Z,12.90
2018-09-18T04:52:25.612Z,12.80
2018-09-18T04:55:28.763Z,12.80
2018-09-18T04:58:32.096Z,12.80
2018-09-18T05:01:35.684Z,12.80
2018-09-18T05:04:38.812Z,12.80
2018-09-18T05:07:41.896Z,12.70
2018-09-18T05:10:45.708Z,12.80
2018-09-18T05:13:48.890Z,12.70
2018-09-18T05:16:51.975Z,12.70
2018-09-18T05:19:55.152Z,12.80
2018-09-18T05:22:58.429Z,12.80
2018-09-18T05:26:01.523Z,12.80
2018-09-18T05:29:04.724Z,12.80
2018-09-18T05:32:07.855Z,12.80
2018-09-18T05:35:11.036Z,12.80
2018-09-18T05:38:14.320Z,12.90
2018-09-18T05:41:17.428Z,13.00
2018-09-18T05:44:21.347Z,13.00
2018-09-18T05:47:24.442Z,13.00
2018-09-18T05:50:27.557Z,12.90
2018-09-18T05:53:30.675Z,13.00
2018-09-18T05:56:33.895Z,13.00
2018-09-18T05:59:37.004Z,13.10
2018-09-18T06:02:40.228Z,13.10
2018-09-18T06:05:43.308Z,13.20
2018-09-18T06:08:46.403Z,13.20
2018-09-18T06:11:49.480Z,13.40
2018-09-18T06:14:52.591Z,13.40
2018-09-18T06:17:55.715Z,13.40
2018-09-18T06:20:58.816Z,13.60
2018-09-18T06:24:01.950Z,13.70
2018-09-18T06:27:05.344Z,13.80
2018-09-18T06:30:08.441Z,13.90
2018-09-18T06:33:11.523Z,13.80
2018-09-18T06:36:14.615Z,13.80
2018-09-18T06:39:17.817Z,13.90
2018-09-18T06:42:20.932Z,13.90
2018-09-18T06:45:23.996Z,14.00
2018-09-18T06:48:27.733Z,14.10
2018-09-18T06:51:30.887Z,14.40
2018-09-18T06:54:34.038Z,14.60
2018-09-18T06:57:37.168Z,14.70
2018-09-18T07:00:40.265Z,14.90
2018-09-18T07:03:43.417Z,14.90
2018-09-18T07:06:46.453Z,15.00
2018-09-18T07:09:49.545Z,15.30
2018-09-18T07:12:52.652Z,15.30
2018-09-18T07:15:55.732Z,15.30
2018-09-18T07:18:58.903Z,15.50
2018-09-18T07:22:01.971Z,15.40
2018-09-18T07:25:05.061Z,15.50
2018-09-18T07:28:08.151Z,15.70
2018-09-18T07:31:11.343Z,15.80
2018-09-18T07:34:14.440Z,16.00
2018-09-18T07:37:17.538Z,16.10
2018-09-18T07:40:20.644Z,16.20
2018-09-18T07:43:23.718Z,16.40
2018-09-18T07:46:26.859Z,16.40
2018-09-18T07:49:29.943Z,16.50
2018-09-18T07:52:33.271Z,16.70
2018-09-18T07:55:36.379Z,16.80
2018-09-18T07:58:39.472Z,17.00
2018-09-18T08:01:42.646Z,17.00
2018-09-18T08:04:45.723Z,17.20
2018-09-18T08:07:49.023Z,17.20
2018-09-18T08:10:52.389Z,17.60
2018-09-18T08:13:55.415Z,17.60
2018-09-18T08:16:58.496Z,17.80
2018-09-18T08:20:01.582Z,17.90
2018-09-18T08:23:04.656Z,17.90
2018-09-18T08:26:07.748Z,18.10
2018-09-18T08:29:10.900Z,18.30
2018-09-18T08:32:14.053Z,18.40
2018-09-18T08:35:18.260Z,18.50
2018-09-18T08:38:21.621Z,18.60
2018-09-18T08:41:24.762Z,18.70
2018-09-18T08:44:27.881Z,18.90
2018-09-18T08:47:30.946Z,18.90
2018-09-18T08:50:34.044Z,19.00
2018-09-18T08:53:37.128Z,19.30
2018-09-18T08:56:40.210Z,19.20
2018-09-18T08:59:43.379Z,19.30
2018-09-18T09:02:46.553Z,19.40
2018-09-18T09:05:49.671Z,19.60
2018-09-18T09:08:52.822Z,19.60
2018-09-18T09:11:55.856Z,20.00
2018-09-18T09:14:58.989Z,20.00
2018-09-18T09:18:02.132Z,20.00
2018-09-18T09:21:05.171Z,20.40
2018-09-18T09:24:08.225Z,20.40
2018-09-18T09:27:11.308Z,20.80
2018-09-18T09:30:14.476Z,20.90
2018-09-18T09:33:17.590Z,21.00
2018-09-18T09:36:20.716Z,21.20
2018-09-18T09:39:23.792Z,21.20
2018-09-18T09:42:26.869Z,21.00
2018-09-18T09:45:29.952Z,21.30
2018-09-18T09:48:33.687Z,21.40
2018-09-18T09:51:36.824Z,21.80
2018-09-18T09:54:39.831Z,22.10
2018-09-18T09:57:42.999Z,21.90
2018-09-18T10:00:51.460Z,22.00
2018-09-18T10:03:55.303Z,22.00
2018-09-18T10:06:58.399Z,22.30
2018-09-18T10:10:01.482Z,22.40
2018-09-18T10:13:04.592Z,22.60
2018-09-18T10:16:07.679Z,22.60
2018-09-18T10:19:10.772Z,22.80
2018-09-18T10:22:14.112Z,22.90
2018-09-18T10:25:17.190Z,22.90
2018-09-18T10:28:20.285Z,23.10
2018-09-18T10:31:23.402Z,23.00
2018-09-18T10:34:26.523Z,23.30
2018-09-18T10:37:29.717Z,23.20
2018-09-18T10:40:32.780Z,23.40
2018-09-18T10:43:35.860Z,23.30
2018-09-18T10:46:39.049Z,23.50
2018-09-18T10:49:42.092Z,23.60
2018-09-18T10:52:45.176Z,23.90
2018-09-18T10:55:48.376Z,24.10
2018-09-18T10:58:51.443Z,24.30
2018-09-18T11:01:54.724Z,24.40
2018-09-18T11:04:57.774Z,24.50
2018-09-18T11:08:00.869Z,24.60
2018-09-18T11:11:04.043Z,24.90
2018-09-18T11:14:07.211Z,24.80
2018-09-18T11:17:10.309Z,25.00
2018-09-18T11:20:13.974Z,25.40
2018-09-18T11:23:17.153Z,25.60
2018-09-18T11:26:20.219Z,26.10
2018-09-18T11:29:23.640Z,26.20
2018-09-18T11:32:26.729Z,26.50
2018-09-18T11:35:29.795Z,26.90
2018-09-18T11:38:32.920Z,27.10
2018-09-18T11:41:36.095Z,27.20
2018-09-18T11:44:39.160Z,27.70
2018-09-18T11:47:42.254Z,28.20
2018-09-18T11:50:45.325Z,28.40
2018-09-18T11:53:48.505Z,29.00
2018-09-18T11:56:51.762Z,29.20
2018-09-18T11:59:54.776Z,29.50
2018-09-18T12:02:57.956Z,29.50
2018-09-18T12:06:01.030Z,29.80
2018-09-18T12:09:05.685Z,30.30
2018-09-18T12:12:08.783Z,30.40
2018-09-18T12:15:11.971Z,30.50
2018-09-18T12:18:15.059Z,30.60
2018-09-18T12:21:18.192Z,30.60
2018-09-18T12:24:21.351Z,31.20
2018-09-18T12:27:24.472Z,31.30
2018-09-18T12:30:27.648Z,31.60
2018-09-18T12:33:30.797Z,31.70
2018-09-18T12:36:33.892Z,31.90
2018-09-18T12:39:37.090Z,32.00
2018-09-18T12:42:40.656Z,32.20
2018-09-18T12:45:43.784Z,32.50
2018-09-18T12:48:47.038Z,32.90
2018-09-18T12:51:50.143Z,33.00
2018-09-18T12:54:53.312Z,33.20
2018-09-18T13:00:45.660Z,33.40
2018-09-18T13:03:48.865Z,33.40
2018-09-18T13:06:52.040Z,33.60
2018-09-18T13:09:55.197Z,33.70
2018-09-18T13:12:58.364Z,33.90
2018-09-18T13:16:01.525Z,33.80
2018-09-18T13:19:04.720Z,33.60
2018-09-18T13:22:07.842Z,33.80
2018-09-18T13:25:11.065Z,34.10
2018-09-18T13:28:14.203Z,33.80
2018-09-18T13:31:17.415Z,33.80
2018-09-18T13:34:20.579Z,34.40
2018-09-18T13:37:23.747Z,34.70
2018-09-18T13:40:26.879Z,34.70
2018-09-18T13:43:30.100Z,34.80
2018-09-18T13:46:33.397Z,34.90
2018-09-18T13:49:36.405Z,34.30
2018-09-18T13:52:39.639Z,34.50
2018-09-18T13:55:42.848Z,35.10
2018-09-18T13:58:46.228Z,35.30
2018-09-18T14:01:49.380Z,35.30
2018-09-18T14:04:52.599Z,35.30
2018-09-18T14:07:56.351Z,35.50
2018-09-18T14:10:59.509Z,35.00
2018-09-18T14:14:02.601Z,35.30
2018-09-18T14:17:05.836Z,35.50
2018-09-18T14:20:09.011Z,35.60
2018-09-18T14:23:12.109Z,35.50
2018-09-18T14:26:15.474Z,35.50
2018-09-18T14:29:19.168Z,35.80
2018-09-18T14:32:22.419Z,35.90
2018-09-18T14:35:25.531Z,35.50
2018-09-18T14:38:28.622Z,35.90
2018-09-18T14:41:31.768Z,35.90
2018-09-18T14:44:34.860Z,35.90
2018-09-18T14:47:38.251Z,35.80
2018-09-18T14:50:41.477Z,35.80
2018-09-18T14:53:44.582Z,36.00
2018-09-18T14:56:47.771Z,35.90
2018-09-18T14:59:51.093Z,35.80
2018-09-18T15:02:54.238Z,35.80
2018-09-18T15:05:57.314Z,36.00
2018-09-18T15:09:00.397Z,35.90
2018-09-18T15:12:03.583Z,35.40
2018-09-18T15:15:06.670Z,35.80
2018-09-18T15:18:09.841Z,35.90
2018-09-18T15:21:12.932Z,35.90
2018-09-18T15:24:16.046Z,34.90
2018-09-18T15:27:19.263Z,34.90
2018-09-18T15:30:22.376Z,35.10
2018-09-18T15:33:25.461Z,34.90
2018-09-18T15:36:28.541Z,34.70
2018-09-18T15:39:31.685Z,34.80
2018-09-18T15:42:34.731Z,34.70
2018-09-18T15:45:37.929Z,34.50
2018-09-18T15:48:40.954Z,34.30
2018-09-18T15:51:44.206Z,34.10
2018-09-18T15:54:47.279Z,33.80
2018-09-18T15:57:50.429Z,33.40
2018-09-18T16:00:53.516Z,32.70
2018-09-18T16:03:56.605Z,32.30
2018-09-18T16:06:59.667Z,31.70
2018-09-18T16:10:02.814Z,31.40
2018-09-18T16:13:05.903Z,31.20
2018-09-18T16:16:09.490Z,30.80
2018-09-18T16:19:12.605Z,30.70
2018-09-18T16:22:15.714Z,30.40
2018-09-18T16:25:18.846Z,30.10
2018-09-18T16:28:21.924Z,30.00
2018-09-18T16:31:25.123Z,29.60
2018-09-18T16:34:28.272Z,29.50
2018-09-18T16:37:31.480Z,29.60
2018-09-18T16:40:34.701Z,29.40
2018-09-18T16:43:37.868Z,29.30
2018-09-18T16:46:41.011Z,29.50
2018-09-18T16:49:44.187Z,29.30
2018-09-18T16:52:47.391Z,29.20
2018-09-18T16:55:50.493Z,29.40
2018-09-18T16:58:53.584Z,29.40
2018-09-18T17:01:56.697Z,29.40
2018-09-18T17:04:59.843Z,29.40
2018-09-18T17:08:04.056Z,29.40
2018-09-18T17:11:07.159Z,29.30
2018-09-18T17:14:10.264Z,29.10
2018-09-18T17:17:14.400Z,29.10
2018-09-18T17:20:17.634Z,28.90
2018-09-18T17:23:21.888Z,28.60
2018-09-18T17:26:25.796Z,28.50
2018-09-18T17:29:29.336Z,28.40
2018-09-18T17:32:32.515Z,28.20
2018-09-18T17:35:35.701Z,28.00
2018-09-18T17:38:38.748Z,27.70
2018-09-18T17:41:41.973Z,27.40
2018-09-18T17:44:45.231Z,26.90
2018-09-18T17:47:48.501Z,26.30
2018-09-18T17:50:51.660Z,25.90
2018-09-18T17:53:54.795Z,25.60
2018-09-18T17:56:58.016Z,25.30
2018-09-18T18:00:01.132Z,25.20
2018-09-18T18:03:04.456Z,25.00
2018-09-18T18:06:07.595Z,24.90
2018-09-18T18:09:11.231Z,24.80
2018-09-18T18:12:14.359Z,24.60
2018-09-18T18:15:17.574Z,24.30
2018-09-18T18:18:21.811Z,24.10
2018-09-18T18:21:25.037Z,23.90
2018-09-18T18:24:28.231Z,23.80
2018-09-18T18:27:31.397Z,23.60
2018-09-18T18:30:34.522Z,23.60
2018-09-18T18:33:38.280Z,23.20
2018-09-18T18:36:41.936Z,23.20
2018-09-18T18:39:45.155Z,23.10
2018-09-18T18:42:48.333Z,22.90
2018-09-18T18:45:51.475Z,22.80
2018-09-18T18:48:54.719Z,22.70
2018-09-18T18:51:57.944Z,22.70
2018-09-18T18:55:01.076Z,22.50
2018-09-18T18:58:05.179Z,22.40
2018-09-18T19:01:08.431Z,22.50
2018-09-18T19:04:11.648Z,22.30
2018-09-18T19:07:14.858Z,22.40
2018-09-18T19:10:18.903Z,22.20
2018-09-18T19:13:22.960Z,22.10
2018-09-18T19:16:26.165Z,22.10
2018-09-18T19:19:30.706Z,22.20
2018-09-18T19:22:34.400Z,22.10
2018-09-18T19:25:38.250Z,22.00
2018-09-18T19:28:41.624Z,21.80
2018-09-18T19:31:44.803Z,21.80
2018-09-18T19:34:47.904Z,21.80
2018-09-18T19:37:51.724Z,21.70
2018-09-18T19:40:54.817Z,21.70
2018-09-18T19:43:57.926Z,21.70
2018-09-18T19:47:01.119Z,21.50
2018-09-18T19:50:04.451Z,21.60
2018-09-18T19:53:07.584Z,21.50
2018-09-18T19:56:10.676Z,21.50
2018-09-18T19:59:15.648Z,21.40
2018-09-18T20:02:19.271Z,21.30
2018-09-18T20:05:22.428Z,21.20
2018-09-18T20:08:25.638Z,21.20
2018-09-18T20:11:29.364Z,21.10
2018-09-18T20:14:34.117Z,21.10
2018-09-18T20:17:38.933Z,21.10
2018-09-18T20:20:43.092Z,21.00
2018-09-18T20:23:46.920Z,20.90
2018-09-18T20:26:51.085Z,20.90
2018-09-18T20:29:55.637Z,20.80
2018-09-18T20:32:59.234Z,20.70
2018-09-18T20:36:02.963Z,20.70
2018-09-18T20:39:09.427Z,20.60
2018-09-18T20:42:14.691Z,20.60
2018-09-18T20:45:17.865Z,20.50
2018-09-18T20:48:20.979Z,20.40
2018-09-18T20:51:24.079Z,20.40
2018-09-18T20:54:27.223Z,20.30
2018-09-18T20:57:30.340Z,20.20
2018-09-18T21:00:34.523Z,20.10
2018-09-18T21:03:39.232Z,20.00
2018-09-18T21:06:43.038Z,19.90
2018-09-18T21:09:46.592Z,19.90
2018-09-18T21:12:50.882Z,19.80
2018-09-18T21:15:54.872Z,19.90
2018-09-18T21:18:58.520Z,19.80
2018-09-18T21:22:03.086Z,19.70
2018-09-18T21:25:16.543Z,19.70
2018-09-18T21:28:20.633Z,19.50
2018-09-18T21:31:26.107Z,19.60
2018-09-18T21:34:30.066Z,19.40
2018-09-18T21:37:35.010Z,19.40
2018-09-18T21:40:38.687Z,19.20
2018-09-18T21:43:45.013Z,19.20
2018-09-18T21:46:49.027Z,19.00
2018-09-18T21:49:52.906Z,18.80
2018-09-18T21:52:57.103Z,18.70
2018-09-18T21:56:01.842Z,18.80
2018-09-18T21:59:05.261Z,18.60
2018-09-18T22:02:09.061Z,18.50
2018-09-18T22:05:12.677Z,18.50
2018-09-18T22:08:16.324Z,18.40
2018-09-18T22:11:21.996Z,18.40
2018-09-18T22:14:26.012Z,18.40
2018-09-18T22:17:29.752Z,18.20
2018-09-18T22:20:33.480Z,18.20
2018-09-18T22:23:37.316Z,18.10
2018-09-18T22:26:42.555Z,18.10
2018-09-18T22:29:46.270Z,18.10
2018-09-18T22:32:50.809Z,18.00
2018-09-18T22:35:54.464Z,17.90
2018-09-18T22:38:58.043Z,18.00
2018-09-18T22:42:01.818Z,17.90
2018-09-18T22:45:05.579Z,17.80
2018-09-18T22:48:10.060Z,17.90
2018-09-18T22:51:16.160Z,17.80
2018-09-18T22:54:19.743Z,17.80
2018-09-18T22:57:23.495Z,17.80
2018-09-18T23:00:27.315Z,17.80
2018-09-18T23:03:31.018Z,17.80
2018-09-18T23:06:35.066Z,17.80
2018-09-18T23:09:38.516Z,18.20
2018-09-18T23:12:42.881Z,18.30
2018-09-18T23:15:46.342Z,18.30
2018-09-18T23:18:50.096Z,18.50
2018-09-18T23:21:53.544Z,18.70
2018-09-18T23:24:56.679Z,18.80
2018-09-18T23:27:59.909Z,18.80
2018-09-18T23:31:02.978Z,18.90
2018-09-18T23:34:06.122Z,18.90
2018-09-18T23:37:09.225Z,18.80
2018-09-18T23:40:12.351Z,18.80
2018-09-18T23:43:15.469Z,18.80
2018-09-18T23:46:18.649Z,18.80
2018-09-18T23:49:21.799Z,18.80
2018-09-18T23:52:24.875Z,18.80
2018-09-18T23:55:29.101Z,18.70
2018-09-18T23:58:33.136Z,18.70
